sensor_id;sensor_type;location;lat;lon;timestamp;temperature;humidity
66096;SHT31;53861;53.422;14.530;2022-09-29T00:00:47;6.05;92.72
66096;SHT31;53861;53.422;14.530;2022-09-29T00:03:16;6.07;92.67
66096;SHT31;53861;53.422;14.530;2022-09-29T00:05:47;6.10;92.95
66096;SHT31;53861;53.422;14.530;2022-09-29T00:08:14;6.10;92.49
66096;SHT31;53861;53.422;14.530;2022-09-29T00:10:41;6.10;92.81
66096;SHT31;53861;53.422;14.530;2022-09-29T00:13:08;6.12;92.61
66096;SHT31;53861;53.422;14.530;2022-09-29T00:15:35;6.01;91.85
66096;SHT31;53861;53.422;14.530;2022-09-29T00:18:02;5.97;92.35
66096;SHT31;53861;53.422;14.530;2022-09-29T00:20:30;5.91;92.56
66096;SHT31;53861;53.422;14.530;2022-09-29T00:22:58;5.97;93.63
66096;SHT31;53861;53.422;14.530;2022-09-29T00:25:25;6.00;93.49
66096;SHT31;53861;53.422;14.530;2022-09-29T00:27:52;6.05;92.99
66096;SHT31;53861;53.422;14.530;2022-09-29T00:30:19;5.97;94.06
66096;SHT31;53861;53.422;14.530;2022-09-29T00:32:45;6.00;93.18
66096;SHT31;53861;53.422;14.530;2022-09-29T00:35:12;5.93;93.04
66096;SHT31;53861;53.422;14.530;2022-09-29T00:37:43;5.88;93.97
66096;SHT31;53861;53.422;14.530;2022-09-29T00:40:11;5.87;93.05
66096;SHT31;53861;53.422;14.530;2022-09-29T00:42:38;5.84;93.19
66096;SHT31;53861;53.422;14.530;2022-09-29T00:45:18;5.81;94.86
66096;SHT31;53861;53.422;14.530;2022-09-29T00:47:46;5.77;93.19
66096;SHT31;53861;53.422;14.530;2022-09-29T00:50:19;5.77;93.11
66096;SHT31;53861;53.422;14.530;2022-09-29T00:52:49;5.84;94.78
66096;SHT31;53861;53.422;14.530;2022-09-29T00:55:19;5.86;93.97
66096;SHT31;53861;53.422;14.530;2022-09-29T00:57:48;5.84;93.93
66096;SHT31;53861;53.422;14.530;2022-09-29T01:00:17;5.87;93.15
66096;SHT31;53861;53.422;14.530;2022-09-29T01:02:44;5.87;92.82
66096;SHT31;53861;53.422;14.530;2022-09-29T01:05:13;5.77;92.77
66096;SHT31;53861;53.422;14.530;2022-09-29T01:07:41;5.69;92.89
66096;SHT31;53861;53.422;14.530;2022-09-29T01:10:11;5.71;92.50
66096;SHT31;53861;53.422;14.530;2022-09-29T01:12:39;5.70;92.64
66096;SHT31;53861;53.422;14.530;2022-09-29T01:15:07;5.83;93.86
66096;SHT31;53861;53.422;14.530;2022-09-29T01:17:34;5.88;94.77
66096;SHT31;53861;53.422;14.530;2022-09-29T01:20:02;5.86;93.06
66096;SHT31;53861;53.422;14.530;2022-09-29T01:22:47;5.80;92.95
66096;SHT31;53861;53.422;14.530;2022-09-29T01:25:24;5.63;92.49
66096;SHT31;53861;53.422;14.530;2022-09-29T01:28:05;5.57;92.42
66096;SHT31;53861;53.422;14.530;2022-09-29T01:30:53;5.54;93.17
66096;SHT31;53861;53.422;14.530;2022-09-29T01:33:29;5.56;93.27
66096;SHT31;53861;53.422;14.530;2022-09-29T01:36:00;5.69;94.18
66096;SHT31;53861;53.422;14.530;2022-09-29T01:38:38;5.70;94.21
66096;SHT31;53861;53.422;14.530;2022-09-29T01:41:09;5.71;94.51
66096;SHT31;53861;53.422;14.530;2022-09-29T01:43:38;5.95;94.85
66096;SHT31;53861;53.422;14.530;2022-09-29T01:46:10;6.02;95.24
66096;SHT31;53861;53.422;14.530;2022-09-29T01:48:39;6.15;95.02
66096;SHT31;53861;53.422;14.530;2022-09-29T01:51:09;6.29;95.05
66096;SHT31;53861;53.422;14.530;2022-09-29T01:53:39;6.33;95.24
66096;SHT31;53861;53.422;14.530;2022-09-29T01:56:10;6.36;94.61
66096;SHT31;53861;53.422;14.530;2022-09-29T01:58:44;6.42;94.12
66096;SHT31;53861;53.422;14.530;2022-09-29T02:01:14;6.39;93.87
66096;SHT31;53861;53.422;14.530;2022-09-29T02:03:43;6.38;94.06
66096;SHT31;53861;53.422;14.530;2022-09-29T02:06:11;6.36;94.83
66096;SHT31;53861;53.422;14.530;2022-09-29T02:08:39;6.41;95.00
66096;SHT31;53861;53.422;14.530;2022-09-29T02:11:08;6.41;95.18
66096;SHT31;53861;53.422;14.530;2022-09-29T02:13:37;6.38;95.24
66096;SHT31;53861;53.422;14.530;2022-09-29T02:16:07;6.36;95.39
66096;SHT31;53861;53.422;14.530;2022-09-29T02:18:39;6.36;95.52
66096;SHT31;53861;53.422;14.530;2022-09-29T02:21:08;6.50;95.65
66096;SHT31;53861;53.422;14.530;2022-09-29T02:23:35;6.55;95.72
66096;SHT31;53861;53.422;14.530;2022-09-29T02:26:01;6.56;95.27
66096;SHT31;53861;53.422;14.530;2022-09-29T02:28:29;6.65;95.37
66096;SHT31;53861;53.422;14.530;2022-09-29T02:30:56;6.62;95.67
66096;SHT31;53861;53.422;14.530;2022-09-29T02:33:24;6.63;95.54
66096;SHT31;53861;53.422;14.530;2022-09-29T02:35:55;6.52;95.57
66096;SHT31;53861;53.422;14.530;2022-09-29T02:38:24;6.69;95.87
66096;SHT31;53861;53.422;14.530;2022-09-29T02:40:56;6.66;95.84
66096;SHT31;53861;53.422;14.530;2022-09-29T02:43:31;6.53;95.48
66096;SHT31;53861;53.422;14.530;2022-09-29T02:49:07;6.46;96.04
66096;SHT31;53861;53.422;14.530;2022-09-29T02:51:40;6.50;96.29
66096;SHT31;53861;53.422;14.530;2022-09-29T02:54:13;6.50;96.35
66096;SHT31;53861;53.422;14.530;2022-09-29T02:56:44;6.63;95.99
66096;SHT31;53861;53.422;14.530;2022-09-29T02:59:14;6.59;95.60
66096;SHT31;53861;53.422;14.530;2022-09-29T03:01:46;6.56;95.82
66096;SHT31;53861;53.422;14.530;2022-09-29T03:04:13;6.41;96.06
66096;SHT31;53861;53.422;14.530;2022-09-29T03:06:41;6.43;96.09
66096;SHT31;53861;53.422;14.530;2022-09-29T03:09:08;6.32;96.42
66096;SHT31;53861;53.422;14.530;2022-09-29T03:11:35;6.48;96.88
66096;SHT31;53861;53.422;14.530;2022-09-29T03:14:05;6.79;96.54
66096;SHT31;53861;53.422;14.530;2022-09-29T03:16:32;6.53;95.85
66096;SHT31;53861;53.422;14.530;2022-09-29T03:18:59;6.59;96.21
66096;SHT31;53861;53.422;14.530;2022-09-29T03:21:26;6.45;96.05
66096;SHT31;53861;53.422;14.530;2022-09-29T03:23:55;6.35;95.95
66096;SHT31;53861;53.422;14.530;2022-09-29T03:26:22;6.36;96.23
66096;SHT31;53861;53.422;14.530;2022-09-29T03:28:49;6.29;96.02
66096;SHT31;53861;53.422;14.530;2022-09-29T03:31:16;6.25;96.37
66096;SHT31;53861;53.422;14.530;2022-09-29T03:33:43;6.32;96.43
66096;SHT31;53861;53.422;14.530;2022-09-29T03:36:10;6.49;96.60
66096;SHT31;53861;53.422;14.530;2022-09-29T03:38:37;6.52;96.30
66096;SHT31;53861;53.422;14.530;2022-09-29T03:41:05;6.55;96.34
66096;SHT31;53861;53.422;14.530;2022-09-29T03:43:32;6.53;96.36
66096;SHT31;53861;53.422;14.530;2022-09-29T03:45:59;6.43;96.07
66096;SHT31;53861;53.422;14.530;2022-09-29T03:48:26;6.50;96.58
66096;SHT31;53861;53.422;14.530;2022-09-29T03:50:56;6.56;96.49
66096;SHT31;53861;53.422;14.530;2022-09-29T03:53:24;6.61;96.00
66096;SHT31;53861;53.422;14.530;2022-09-29T03:55:51;6.48;95.10
66096;SHT31;53861;53.422;14.530;2022-09-29T03:58:19;6.53;96.32
66096;SHT31;53861;53.422;14.530;2022-09-29T04:00:46;6.31;95.80
66096;SHT31;53861;53.422;14.530;2022-09-29T04:03:14;6.41;96.89
66096;SHT31;53861;53.422;14.530;2022-09-29T04:05:40;6.28;95.55
66096;SHT31;53861;53.422;14.530;2022-09-29T04:08:07;6.31;96.62
66096;SHT31;53861;53.422;14.530;2022-09-29T04:10:34;6.32;96.22
66096;SHT31;53861;53.422;14.530;2022-09-29T04:13:01;6.28;96.08
66096;SHT31;53861;53.422;14.530;2022-09-29T04:15:29;6.14;95.54
66096;SHT31;53861;53.422;14.530;2022-09-29T04:17:56;6.08;95.97
66096;SHT31;53861;53.422;14.530;2022-09-29T04:20:23;6.15;96.40
66096;SHT31;53861;53.422;14.530;2022-09-29T04:22:50;6.10;96.76
66096;SHT31;53861;53.422;14.530;2022-09-29T04:25:17;6.24;96.76
66096;SHT31;53861;53.422;14.530;2022-09-29T04:27:44;6.38;96.69
66096;SHT31;53861;53.422;14.530;2022-09-29T04:30:11;6.43;96.18
66096;SHT31;53861;53.422;14.530;2022-09-29T04:32:39;6.56;96.42
66096;SHT31;53861;53.422;14.530;2022-09-29T04:35:06;6.59;96.66
66096;SHT31;53861;53.422;14.530;2022-09-29T04:37:34;6.35;96.06
66096;SHT31;53861;53.422;14.530;2022-09-29T04:40:01;6.32;96.00
66096;SHT31;53861;53.422;14.530;2022-09-29T04:42:28;6.45;96.29
66096;SHT31;53861;53.422;14.530;2022-09-29T04:44:55;6.36;95.50
66096;SHT31;53861;53.422;14.530;2022-09-29T04:47:22;6.52;96.31
66096;SHT31;53861;53.422;14.530;2022-09-29T04:49:50;6.65;96.38
66096;SHT31;53861;53.422;14.530;2022-09-29T04:52:17;6.73;96.27
66096;SHT31;53861;53.422;14.530;2022-09-29T04:54:44;6.57;95.13
66096;SHT31;53861;53.422;14.530;2022-09-29T04:57:10;6.43;94.76
66096;SHT31;53861;53.422;14.530;2022-09-29T04:59:37;6.32;95.21
66096;SHT31;53861;53.422;14.530;2022-09-29T05:02:04;6.18;95.13
66096;SHT31;53861;53.422;14.530;2022-09-29T05:04:31;6.39;96.65
66096;SHT31;53861;53.422;14.530;2022-09-29T05:06:59;6.42;95.96
66096;SHT31;53861;53.422;14.530;2022-09-29T05:09:26;6.21;95.83
66096;SHT31;53861;53.422;14.530;2022-09-29T05:11:53;6.35;96.44
66096;SHT31;53861;53.422;14.530;2022-09-29T05:14:20;6.21;96.41
66096;SHT31;53861;53.422;14.530;2022-09-29T05:16:47;6.35;96.83
66096;SHT31;53861;53.422;14.530;2022-09-29T05:19:14;6.50;96.62
66096;SHT31;53861;53.422;14.530;2022-09-29T05:21:41;6.26;95.95
66096;SHT31;53861;53.422;14.530;2022-09-29T05:24:09;6.28;96.27
66096;SHT31;53861;53.422;14.530;2022-09-29T05:26:36;6.22;96.16
66096;SHT31;53861;53.422;14.530;2022-09-29T05:29:02;6.31;96.47
66096;SHT31;53861;53.422;14.530;2022-09-29T05:31:29;6.14;95.86
66096;SHT31;53861;53.422;14.530;2022-09-29T05:33:56;6.29;96.40
66096;SHT31;53861;53.422;14.530;2022-09-29T05:36:23;6.42;96.63
66096;SHT31;53861;53.422;14.530;2022-09-29T05:38:50;6.69;96.56
66096;SHT31;53861;53.422;14.530;2022-09-29T05:41:18;6.48;96.05
66096;SHT31;53861;53.422;14.530;2022-09-29T05:43:50;6.28;95.63
66096;SHT31;53861;53.422;14.530;2022-09-29T05:46:18;6.28;95.98
66096;SHT31;53861;53.422;14.530;2022-09-29T05:48:45;6.35;95.35
66096;SHT31;53861;53.422;14.530;2022-09-29T05:51:12;6.52;95.94
66096;SHT31;53861;53.422;14.530;2022-09-29T05:53:39;6.41;95.55
66096;SHT31;53861;53.422;14.530;2022-09-29T05:56:07;6.50;96.08
66096;SHT31;53861;53.422;14.530;2022-09-29T05:58:39;6.68;96.16
66096;SHT31;53861;53.422;14.530;2022-09-29T06:01:07;6.52;94.50
66096;SHT31;53861;53.422;14.530;2022-09-29T06:03:34;6.38;94.66
66096;SHT31;53861;53.422;14.530;2022-09-29T06:06:05;6.53;95.28
66096;SHT31;53861;53.422;14.530;2022-09-29T06:08:32;6.52;95.10
66096;SHT31;53861;53.422;14.530;2022-09-29T06:11:02;6.53;94.55
66096;SHT31;53861;53.422;14.530;2022-09-29T06:13:29;6.49;94.70
66096;SHT31;53861;53.422;14.530;2022-09-29T06:15:58;6.49;95.75
66096;SHT31;53861;53.422;14.530;2022-09-29T06:18:25;6.72;94.88
66096;SHT31;53861;53.422;14.530;2022-09-29T06:20:58;6.97;95.32
66096;SHT31;53861;53.422;14.530;2022-09-29T06:23:25;6.90;95.84
66096;SHT31;53861;53.422;14.530;2022-09-29T06:25:54;6.82;94.80
66096;SHT31;53861;53.422;14.530;2022-09-29T06:28:20;7.06;95.59
66096;SHT31;53861;53.422;14.530;2022-09-29T06:30:49;7.01;94.33
66096;SHT31;53861;53.422;14.530;2022-09-29T06:33:18;7.24;96.00
66096;SHT31;53861;53.422;14.530;2022-09-29T06:35:46;7.37;95.40
66096;SHT31;53861;53.422;14.530;2022-09-29T06:38:30;7.35;94.20
66096;SHT31;53861;53.422;14.530;2022-09-29T06:40:58;7.37;94.41
66096;SHT31;53861;53.422;14.530;2022-09-29T06:43:25;7.21;94.83
66096;SHT31;53861;53.422;14.530;2022-09-29T06:45:52;7.28;95.44
66096;SHT31;53861;53.422;14.530;2022-09-29T06:48:21;7.28;95.49
66096;SHT31;53861;53.422;14.530;2022-09-29T06:50:50;7.34;96.45
66096;SHT31;53861;53.422;14.530;2022-09-29T06:53:20;7.52;95.78
66096;SHT31;53861;53.422;14.530;2022-09-29T06:55:50;7.67;96.08
66096;SHT31;53861;53.422;14.530;2022-09-29T06:58:17;7.69;95.31
66096;SHT31;53861;53.422;14.530;2022-09-29T07:00:44;7.72;96.04
66096;SHT31;53861;53.422;14.530;2022-09-29T07:03:12;7.83;95.53
66096;SHT31;53861;53.422;14.530;2022-09-29T07:05:40;7.85;95.74
66096;SHT31;53861;53.422;14.530;2022-09-29T07:08:09;7.92;95.58
66096;SHT31;53861;53.422;14.530;2022-09-29T07:10:36;8.02;95.77
66096;SHT31;53861;53.422;14.530;2022-09-29T07:13:04;7.93;95.41
66096;SHT31;53861;53.422;14.530;2022-09-29T07:15:33;8.03;96.27
66096;SHT31;53861;53.422;14.530;2022-09-29T07:18:00;8.17;96.48
66096;SHT31;53861;53.422;14.530;2022-09-29T07:20:28;8.20;95.25
66096;SHT31;53861;53.422;14.530;2022-09-29T07:22:56;8.29;95.64
66096;SHT31;53861;53.422;14.530;2022-09-29T07:25:23;8.37;95.43
66096;SHT31;53861;53.422;14.530;2022-09-29T07:27:50;8.25;93.59
66096;SHT31;53861;53.422;14.530;2022-09-29T07:30:17;8.25;93.71
66096;SHT31;53861;53.422;14.530;2022-09-29T07:32:47;8.30;93.73
66096;SHT31;53861;53.422;14.530;2022-09-29T07:35:14;8.54;94.17
66096;SHT31;53861;53.422;14.530;2022-09-29T07:37:41;8.63;93.79
66096;SHT31;53861;53.422;14.530;2022-09-29T07:40:09;8.71;93.92
66096;SHT31;53861;53.422;14.530;2022-09-29T07:42:36;8.75;93.28
66096;SHT31;53861;53.422;14.530;2022-09-29T07:45:03;8.61;93.28
66096;SHT31;53861;53.422;14.530;2022-09-29T07:47:33;8.78;93.99
66096;SHT31;53861;53.422;14.530;2022-09-29T07:50:00;8.70;93.50
66096;SHT31;53861;53.422;14.530;2022-09-29T07:52:26;8.60;93.47
66096;SHT31;53861;53.422;14.530;2022-09-29T07:54:56;8.72;94.46
66096;SHT31;53861;53.422;14.530;2022-09-29T07:57:24;8.72;94.03
66096;SHT31;53861;53.422;14.530;2022-09-29T07:59:51;8.95;94.23
66096;SHT31;53861;53.422;14.530;2022-09-29T08:02:19;9.04;94.15
66096;SHT31;53861;53.422;14.530;2022-09-29T08:04:46;9.02;92.87
66096;SHT31;53861;53.422;14.530;2022-09-29T08:07:13;9.29;92.68
66096;SHT31;53861;53.422;14.530;2022-09-29T08:09:39;9.75;93.28
66096;SHT31;53861;53.422;14.530;2022-09-29T08:12:07;10.42;91.47
66096;SHT31;53861;53.422;14.530;2022-09-29T08:14:35;10.99;90.94
66096;SHT31;53861;53.422;14.530;2022-09-29T08:17:04;11.05;88.06
66096;SHT31;53861;53.422;14.530;2022-09-29T08:19:30;11.03;89.36
66096;SHT31;53861;53.422;14.530;2022-09-29T08:21:57;11.10;88.72
66096;SHT31;53861;53.422;14.530;2022-09-29T08:24:24;11.13;88.63
66096;SHT31;53861;53.422;14.530;2022-09-29T08:26:52;10.82;88.87
66096;SHT31;53861;53.422;14.530;2022-09-29T08:29:22;10.96;88.06
66096;SHT31;53861;53.422;14.530;2022-09-29T08:31:50;11.13;88.62
66096;SHT31;53861;53.422;14.530;2022-09-29T08:34:18;12.53;84.57
66096;SHT31;53861;53.422;14.530;2022-09-29T08:36:45;12.21;82.58
66096;SHT31;53861;53.422;14.530;2022-09-29T08:39:12;11.85;85.84
66096;SHT31;53861;53.422;14.530;2022-09-29T08:41:44;11.73;85.88
66096;SHT31;53861;53.422;14.530;2022-09-29T08:44:14;11.31;83.60
66096;SHT31;53861;53.422;14.530;2022-09-29T08:46:43;11.00;86.29
66096;SHT31;53861;53.422;14.530;2022-09-29T08:49:14;11.18;84.47
66096;SHT31;53861;53.422;14.530;2022-09-29T08:51:42;11.23;88.57
66096;SHT31;53861;53.422;14.530;2022-09-29T08:54:14;11.36;87.33
66096;SHT31;53861;53.422;14.530;2022-09-29T08:56:44;11.05;88.26
66096;SHT31;53861;53.422;14.530;2022-09-29T08:59:11;11.06;88.67
66096;SHT31;53861;53.422;14.530;2022-09-29T09:01:41;12.18;86.57
66096;SHT31;53861;53.422;14.530;2022-09-29T09:04:17;12.33;83.83
66096;SHT31;53861;53.422;14.530;2022-09-29T09:06:54;12.48;81.79
66096;SHT31;53861;53.422;14.530;2022-09-29T09:09:32;13.00;81.28
66096;SHT31;53861;53.422;14.530;2022-09-29T09:12:08;13.83;80.16
66096;SHT31;53861;53.422;14.530;2022-09-29T09:14:43;13.95;75.54
66096;SHT31;53861;53.422;14.530;2022-09-29T09:17:16;14.41;77.14
66096;SHT31;53861;53.422;14.530;2022-09-29T09:19:54;15.69;75.19
66096;SHT31;53861;53.422;14.530;2022-09-29T09:22:28;13.37;76.41
66096;SHT31;53861;53.422;14.530;2022-09-29T09:25:00;12.49;81.34
66096;SHT31;53861;53.422;14.530;2022-09-29T09:27:30;15.48;73.07
66096;SHT31;53861;53.422;14.530;2022-09-29T09:30:00;16.46;69.13
66096;SHT31;53861;53.422;14.530;2022-09-29T09:32:29;16.20;69.56
66096;SHT31;53861;53.422;14.530;2022-09-29T09:34:58;16.09;66.97
66096;SHT31;53861;53.422;14.530;2022-09-29T09:37:27;17.07;67.74
66096;SHT31;53861;53.422;14.530;2022-09-29T09:39:56;15.97;72.05
66096;SHT31;53861;53.422;14.530;2022-09-29T09:42:26;17.35;64.14
66096;SHT31;53861;53.422;14.530;2022-09-29T09:44:56;18.83;65.41
66096;SHT31;53861;53.422;14.530;2022-09-29T09:47:25;20.97;54.12
66096;SHT31;53861;53.422;14.530;2022-09-29T09:49:53;21.08;61.16
66096;SHT31;53861;53.422;14.530;2022-09-29T09:52:23;20.96;56.67
66096;SHT31;53861;53.422;14.530;2022-09-29T09:54:52;18.17;62.22
66096;SHT31;53861;53.422;14.530;2022-09-29T09:57:25;16.69;68.31
66096;SHT31;53861;53.422;14.530;2022-09-29T09:59:58;15.83;70.68
66096;SHT31;53861;53.422;14.530;2022-09-29T10:02:28;15.97;68.43
66096;SHT31;53861;53.422;14.530;2022-09-29T10:04:55;17.07;64.45
66096;SHT31;53861;53.422;14.530;2022-09-29T10:07:24;19.23;62.26
66096;SHT31;53861;53.422;14.530;2022-09-29T10:09:53;19.82;60.43
66096;SHT31;53861;53.422;14.530;2022-09-29T10:12:22;19.40;64.85
66096;SHT31;53861;53.422;14.530;2022-09-29T10:14:50;18.02;62.51
66096;SHT31;53861;53.422;14.530;2022-09-29T10:17:18;16.68;67.64
66096;SHT31;53861;53.422;14.530;2022-09-29T10:19:54;16.43;66.35
66096;SHT31;53861;53.422;14.530;2022-09-29T10:22:23;15.78;67.39
66096;SHT31;53861;53.422;14.530;2022-09-29T10:24:51;17.57;63.07
66096;SHT31;53861;53.422;14.530;2022-09-29T10:27:23;19.22;61.88
66096;SHT31;53861;53.422;14.530;2022-09-29T10:29:51;19.23;63.85
66096;SHT31;53861;53.422;14.530;2022-09-29T10:32:24;20.43;59.34
66096;SHT31;53861;53.422;14.530;2022-09-29T10:35:03;18.17;62.32
66096;SHT31;53861;53.422;14.530;2022-09-29T10:37:33;16.61;65.34
66096;SHT31;53861;53.422;14.530;2022-09-29T10:40:02;16.20;70.87
66096;SHT31;53861;53.422;14.530;2022-09-29T10:42:31;16.33;71.71
66096;SHT31;53861;53.422;14.530;2022-09-29T10:45:00;17.54;64.15
66096;SHT31;53861;53.422;14.530;2022-09-29T10:47:27;20.62;59.85
66096;SHT31;53861;53.422;14.530;2022-09-29T10:50:06;21.51;54.94
66096;SHT31;53861;53.422;14.530;2022-09-29T10:52:34;18.05;60.57
66096;SHT31;53861;53.422;14.530;2022-09-29T10:55:02;18.35;60.29
66096;SHT31;53861;53.422;14.530;2022-09-29T10:57:30;18.56;61.83
66096;SHT31;53861;53.422;14.530;2022-09-29T10:59:58;18.49;60.49
66096;SHT31;53861;53.422;14.530;2022-09-29T11:02:26;17.47;62.79
66096;SHT31;53861;53.422;14.530;2022-09-29T11:04:56;16.68;67.83
66096;SHT31;53861;53.422;14.530;2022-09-29T11:07:24;16.26;68.44
66096;SHT31;53861;53.422;14.530;2022-09-29T11:09:53;15.95;68.37
66096;SHT31;53861;53.422;14.530;2022-09-29T11:12:25;17.22;70.56
66096;SHT31;53861;53.422;14.530;2022-09-29T11:14:52;16.79;64.64
66096;SHT31;53861;53.422;14.530;2022-09-29T11:17:19;16.65;66.89
66096;SHT31;53861;53.422;14.530;2022-09-29T11:19:47;16.38;67.15
66096;SHT31;53861;53.422;14.530;2022-09-29T11:27:47;16.09;68.27
66096;SHT31;53861;53.422;14.530;2022-09-29T11:30:18;17.79;70.52
66096;SHT31;53861;53.422;14.530;2022-09-29T11:32:49;18.56;56.32
66096;SHT31;53861;53.422;14.530;2022-09-29T11:35:20;17.62;58.67
66096;SHT31;53861;53.422;14.530;2022-09-29T11:37:55;18.76;60.04
66096;SHT31;53861;53.422;14.530;2022-09-29T11:40:27;17.22;61.10
66096;SHT31;53861;53.422;14.530;2022-09-29T11:43:01;16.18;62.12
66096;SHT31;53861;53.422;14.530;2022-09-29T11:45:34;15.85;65.90
66096;SHT31;53861;53.422;14.530;2022-09-29T11:48:19;15.63;66.13
66096;SHT31;53861;53.422;14.530;2022-09-29T11:50:52;15.65;65.93
66096;SHT31;53861;53.422;14.530;2022-09-29T11:53:32;15.45;72.49
66096;SHT31;53861;53.422;14.530;2022-09-29T11:56:15;15.28;67.08
66096;SHT31;53861;53.422;14.530;2022-09-29T11:58:52;15.14;71.17
66096;SHT31;53861;53.422;14.530;2022-09-29T12:01:25;14.97;68.95
66096;SHT31;53861;53.422;14.530;2022-09-29T12:03:58;14.90;71.66
66096;SHT31;53861;53.422;14.530;2022-09-29T12:06:34;14.77;71.79
66096;SHT31;53861;53.422;14.530;2022-09-29T12:09:14;14.70;70.03
66096;SHT31;53861;53.422;14.530;2022-09-29T12:11:43;14.66;71.80
66096;SHT31;53861;53.422;14.530;2022-09-29T12:14:19;14.49;75.47
66096;SHT31;53861;53.422;14.530;2022-09-29T12:16:50;14.57;74.82
66096;SHT31;53861;53.422;14.530;2022-09-29T12:19:19;14.63;71.91
66096;SHT31;53861;53.422;14.530;2022-09-29T12:21:48;14.36;74.00
66096;SHT31;53861;53.422;14.530;2022-09-29T12:24:17;14.44;72.35
66096;SHT31;53861;53.422;14.530;2022-09-29T12:26:45;14.32;71.03
66096;SHT31;53861;53.422;14.530;2022-09-29T12:29:16;14.10;74.10
66096;SHT31;53861;53.422;14.530;2022-09-29T12:31:46;14.08;75.19
66096;SHT31;53861;53.422;14.530;2022-09-29T12:34:15;14.34;74.15
66096;SHT31;53861;53.422;14.530;2022-09-29T12:36:43;14.26;72.10
66096;SHT31;53861;53.422;14.530;2022-09-29T12:42:06;14.87;68.90
66096;SHT31;53861;53.422;14.530;2022-09-29T12:44:36;15.24;71.22
66096;SHT31;53861;53.422;14.530;2022-09-29T12:47:08;15.18;68.49
66096;SHT31;53861;53.422;14.530;2022-09-29T12:49:38;15.12;74.32
66096;SHT31;53861;53.422;14.530;2022-09-29T12:52:09;15.08;70.72
66096;SHT31;53861;53.422;14.530;2022-09-29T12:54:39;15.35;67.39
66096;SHT31;53861;53.422;14.530;2022-09-29T12:57:10;15.45;66.61
66096;SHT31;53861;53.422;14.530;2022-09-29T12:59:40;15.46;67.03
66096;SHT31;53861;53.422;14.530;2022-09-29T13:02:16;15.70;66.92
66096;SHT31;53861;53.422;14.530;2022-09-29T13:04:59;16.04;67.01
66096;SHT31;53861;53.422;14.530;2022-09-29T13:10:17;16.74;62.95
66096;SHT31;53861;53.422;14.530;2022-09-29T13:12:51;17.22;61.05
66096;SHT31;53861;53.422;14.530;2022-09-29T13:15:23;17.38;61.38
66096;SHT31;53861;53.422;14.530;2022-09-29T13:17:57;18.28;61.38
66096;SHT31;53861;53.422;14.530;2022-09-29T13:23:22;18.34;61.63
66096;SHT31;53861;53.422;14.530;2022-09-29T13:25:55;18.93;59.40
66096;SHT31;53861;53.422;14.530;2022-09-29T13:28:28;19.22;59.91
66096;SHT31;53861;53.422;14.530;2022-09-29T13:30:55;18.96;57.25
66096;SHT31;53861;53.422;14.530;2022-09-29T13:33:27;18.91;57.36
66096;SHT31;53861;53.422;14.530;2022-09-29T13:35:54;17.89;57.68
66096;SHT31;53861;53.422;14.530;2022-09-29T13:38:21;17.35;62.97
66096;SHT31;53861;53.422;14.530;2022-09-29T13:41:08;16.84;64.55
66096;SHT31;53861;53.422;14.530;2022-09-29T13:43:36;17.49;64.37
66096;SHT31;53861;53.422;14.530;2022-09-29T13:48:51;17.02;61.66
66096;SHT31;53861;53.422;14.530;2022-09-29T13:54:25;15.79;66.79
66096;SHT31;53861;53.422;14.530;2022-09-29T14:00:04;15.17;67.63
66096;SHT31;53861;53.422;14.530;2022-09-29T14:02:40;15.27;67.32
66096;SHT31;53861;53.422;14.530;2022-09-29T14:08:05;15.07;70.07
66096;SHT31;53861;53.422;14.530;2022-09-29T14:10:37;15.00;71.51
66096;SHT31;53861;53.422;14.530;2022-09-29T14:13:05;14.90;69.77
66096;SHT31;53861;53.422;14.530;2022-09-29T14:15:34;15.05;70.76
66096;SHT31;53861;53.422;14.530;2022-09-29T14:18:02;15.02;65.75
66096;SHT31;53861;53.422;14.530;2022-09-29T14:20:31;15.00;70.57
66096;SHT31;53861;53.422;14.530;2022-09-29T14:23:01;14.88;69.31
66096;SHT31;53861;53.422;14.530;2022-09-29T14:28:21;15.00;68.66
66096;SHT31;53861;53.422;14.530;2022-09-29T14:30:50;14.91;68.59
66096;SHT31;53861;53.422;14.530;2022-09-29T14:33:18;14.79;67.88
66096;SHT31;53861;53.422;14.530;2022-09-29T14:35:49;14.66;67.19
66096;SHT31;53861;53.422;14.530;2022-09-29T14:38:21;14.39;68.00
66096;SHT31;53861;53.422;14.530;2022-09-29T14:40:54;14.43;67.56
66096;SHT31;53861;53.422;14.530;2022-09-29T14:43:23;14.33;71.48
66096;SHT31;53861;53.422;14.530;2022-09-29T14:46:15;14.10;69.52
66096;SHT31;53861;53.422;14.530;2022-09-29T14:49:24;14.16;74.03
66096;SHT31;53861;53.422;14.530;2022-09-29T14:52:09;14.09;73.84
66096;SHT31;53861;53.422;14.530;2022-09-29T14:54:44;13.94;71.13
66096;SHT31;53861;53.422;14.530;2022-09-29T14:57:18;13.59;71.66
66096;SHT31;53861;53.422;14.530;2022-09-29T14:59:52;13.59;74.20
66096;SHT31;53861;53.422;14.530;2022-09-29T15:02:24;13.67;72.43
66096;SHT31;53861;53.422;14.530;2022-09-29T15:04:53;13.72;70.76
66096;SHT31;53861;53.422;14.530;2022-09-29T15:07:22;13.75;71.83
66096;SHT31;53861;53.422;14.530;2022-09-29T15:09:52;13.72;74.30
66096;SHT31;53861;53.422;14.530;2022-09-29T15:12:20;13.65;73.78
66096;SHT31;53861;53.422;14.530;2022-09-29T15:14:48;13.38;72.64
66096;SHT31;53861;53.422;14.530;2022-09-29T15:17:17;13.34;72.90
66096;SHT31;53861;53.422;14.530;2022-09-29T15:19:50;13.37;73.52
66096;SHT31;53861;53.422;14.530;2022-09-29T15:22:40;13.36;73.89
66096;SHT31;53861;53.422;14.530;2022-09-29T15:25:24;13.44;76.24
66096;SHT31;53861;53.422;14.530;2022-09-29T15:27:55;13.57;73.33
66096;SHT31;53861;53.422;14.530;2022-09-29T15:30:24;13.57;75.08
66096;SHT31;53861;53.422;14.530;2022-09-29T15:32:51;13.53;73.24
66096;SHT31;53861;53.422;14.530;2022-09-29T15:35:20;13.47;75.14
66096;SHT31;53861;53.422;14.530;2022-09-29T15:37:55;13.30;75.16
66096;SHT31;53861;53.422;14.530;2022-09-29T15:40:22;13.30;74.17
66096;SHT31;53861;53.422;14.530;2022-09-29T15:42:51;13.37;73.85
66096;SHT31;53861;53.422;14.530;2022-09-29T15:45:21;13.38;75.63
66096;SHT31;53861;53.422;14.530;2022-09-29T15:47:49;13.31;74.03
66096;SHT31;53861;53.422;14.530;2022-09-29T15:50:24;13.08;75.75
66096;SHT31;53861;53.422;14.530;2022-09-29T15:52:51;13.13;74.89
66096;SHT31;53861;53.422;14.530;2022-09-29T15:55:18;13.18;74.93
66096;SHT31;53861;53.422;14.530;2022-09-29T15:57:47;13.08;75.41
66096;SHT31;53861;53.422;14.530;2022-09-29T16:00:42;13.03;76.01
66096;SHT31;53861;53.422;14.530;2022-09-29T16:03:11;13.08;75.61
66096;SHT31;53861;53.422;14.530;2022-09-29T16:05:44;12.97;75.88
66096;SHT31;53861;53.422;14.530;2022-09-29T16:08:18;13.02;76.04
66096;SHT31;53861;53.422;14.530;2022-09-29T16:10:47;13.03;75.18